createdAt,value
2018-07-28T02:33:20.562Z,11.50
2018-07-28T02:36:15.354Z,10.82
2018-07-28T02:39:00.668Z,10.68
2018-07-28T02:41:41.621Z,11.68
2018-07-28T02:44:26.961Z,12.13
2018-07-28T02:46:58.278Z,11.48
2018-07-28T02:49:28.708Z,12.25
2018-07-28T02:51:59.118Z,12.63
2018-07-28T02:54:38.141Z,12.37
2018-07-28T02:57:27.224Z,12.85
2018-07-28T03:00:18.410Z,12.40
2018-07-28T03:03:06.427Z,11.20
2018-07-28T03:05:37.270Z,12.98
2018-07-28T03:08:08.349Z,12.80
2018-07-28T03:10:38.846Z,12.28
2018-07-28T03:13:09.296Z,12.68
2018-07-28T03:15:39.732Z,12.43
2018-07-28T03:18:10.206Z,13.00
2018-07-28T03:20:40.692Z,14.15
2018-07-28T03:23:11.113Z,13.90
2018-07-28T03:25:41.583Z,12.63
2018-07-28T03:28:12.046Z,13.05
2018-07-28T03:30:42.556Z,12.43
2018-07-28T03:33:13.017Z,12.93
2018-07-28T03:35:43.441Z,14.50
2018-07-28T03:38:13.759Z,13.95
2018-07-28T03:40:44.118Z,14.05
2018-07-28T03:43:14.539Z,12.98
2018-07-28T03:45:44.949Z,14.28
2018-07-28T03:48:15.309Z,13.35
2018-07-28T03:50:45.651Z,14.13
2018-07-28T03:53:16.158Z,14.78
2018-07-28T03:55:46.561Z,13.50
2018-07-28T03:58:16.907Z,13.70
2018-07-28T04:00:47.281Z,13.88
2018-07-28T04:03:17.732Z,15.13
2018-07-28T04:05:48.142Z,15.38
2018-07-28T04:08:18.507Z,14.60
2018-07-28T04:10:48.900Z,14.55
2018-07-28T04:13:19.325Z,13.85
2018-07-28T04:15:49.745Z,13.48
2018-07-28T04:18:20.203Z,14.15
2018-07-28T04:20:50.672Z,14.50
2018-07-28T04:23:21.157Z,13.95
2018-07-28T04:25:51.708Z,14.00
2018-07-28T04:28:22.193Z,14.50
2018-07-28T04:30:52.583Z,13.30
2018-07-28T04:33:22.966Z,15.13
2018-07-28T04:35:53.325Z,14.78
2018-07-28T04:38:23.743Z,13.93
2018-07-28T04:40:54.170Z,14.75
2018-07-28T04:43:24.853Z,14.55
2018-07-28T04:45:55.360Z,14.35
2018-07-28T04:48:25.894Z,13.68
2018-07-28T04:50:56.206Z,13.75
2018-07-28T04:53:26.918Z,13.45
2018-07-28T04:55:57.366Z,13.62
2018-07-28T04:58:34.813Z,13.20
2018-07-28T05:01:05.292Z,13.80
2018-07-28T05:03:35.712Z,13.05
2018-07-28T05:06:06.129Z,14.38
2018-07-28T05:09:20.445Z,13.72
2018-07-28T05:15:35.019Z,14.47
2018-07-28T05:18:34.134Z,12.37
2018-07-28T06:11:00.581Z,11.25
2018-07-28T06:14:06.916Z,10.00
2018-07-28T06:16:41.348Z,9.43
2018-07-28T06:19:13.130Z,10.67
2018-07-28T06:21:44.168Z,10.20
2018-07-28T06:24:18.538Z,9.90
2018-07-28T06:26:51.930Z,9.70
2018-07-28T06:29:24.617Z,9.80
2018-07-28T06:31:56.839Z,9.60
2018-07-28T06:34:34.323Z,9.97
2018-07-28T06:37:11.463Z,9.67
2018-07-28T06:39:46.580Z,9.30
2018-07-28T06:48:33.591Z,8.73
2018-07-28T06:51:04.102Z,7.27
2018-07-28T06:53:35.011Z,8.97
2018-07-28T06:56:05.739Z,8.60
2018-07-28T06:58:36.077Z,9.37
2018-07-28T07:01:06.867Z,9.00
2018-07-28T07:03:43.972Z,8.77
2018-07-28T07:06:15.168Z,9.17
2018-07-28T07:08:46.128Z,8.50
2018-07-28T07:11:18.466Z,9.40
2018-07-28T07:13:55.111Z,9.23
2018-07-28T07:16:40.849Z,9.33
2018-07-28T07:19:24.677Z,9.40
2018-07-28T07:21:59.172Z,7.60
2018-07-28T07:24:30.207Z,7.90
2018-07-28T07:27:01.013Z,8.60
2018-07-28T07:29:48.161Z,7.53
2018-07-28T07:32:19.055Z,8.30
2018-07-28T07:35:00.272Z,9.13
2018-07-28T07:37:31.140Z,8.88
2018-07-28T07:40:01.644Z,8.45
2018-07-28T07:42:32.011Z,7.70
2018-07-28T07:45:14.484Z,7.62
2018-07-28T07:47:44.715Z,7.63
2018-07-28T07:50:14.946Z,8.60
2018-07-28T07:52:45.600Z,8.50
2018-07-28T07:55:16.059Z,8.03
2018-07-28T07:57:46.512Z,7.70
2018-07-28T08:00:17.083Z,7.73
2018-07-28T08:02:47.953Z,7.30
2018-07-28T08:05:18.424Z,8.08
2018-07-28T08:07:48.972Z,7.23
2018-07-28T08:10:19.424Z,6.90
2018-07-28T08:15:45.692Z,7.50
2018-07-28T08:18:16.282Z,7.60
2018-07-28T08:20:46.792Z,8.60
2018-07-28T08:23:17.286Z,7.03
2018-07-28T08:25:54.042Z,7.47
2018-07-28T08:28:32.476Z,7.55
2018-07-28T08:31:02.848Z,7.60
2018-07-28T08:33:33.276Z,7.78
2018-07-28T08:36:03.847Z,8.60
2018-07-28T08:38:34.549Z,8.20
2018-07-28T08:41:05.016Z,9.50
2018-07-28T08:43:35.622Z,8.48
2018-07-28T08:46:06.690Z,7.60
2018-07-28T08:48:37.458Z,8.63
2018-07-28T08:51:07.823Z,8.90
2018-07-28T08:53:38.407Z,7.90
2018-07-28T08:56:08.857Z,9.00
2018-07-28T08:58:39.782Z,8.53
2018-07-28T09:01:10.110Z,9.27
2018-07-28T09:06:58.426Z,8.63
2018-07-28T09:09:43.203Z,7.95
2018-07-28T09:12:22.382Z,8.95
2018-07-28T09:15:08.279Z,8.70
2018-07-28T09:17:40.789Z,7.92
2018-07-28T09:20:40.404Z,8.40
2018-07-28T09:28:57.207Z,7.57
2018-07-28T09:31:35.541Z,8.53
2018-07-28T09:34:23.053Z,8.03
2018-07-28T09:37:18.988Z,8.03
2018-07-28T09:45:33.945Z,8.13
2018-07-28T09:48:24.628Z,9.07
2018-07-28T09:51:15.552Z,8.68
2018-07-28T09:53:58.932Z,9.13
2018-07-28T09:56:52.238Z,7.87
2018-07-28T10:03:00.510Z,8.10
2018-07-28T10:05:31.597Z,8.27
2018-07-28T10:09:12.637Z,7.53
2018-07-28T10:11:45.579Z,7.47
2018-07-28T10:14:34.888Z,7.07
2018-07-28T10:17:06.609Z,7.23
2018-07-28T10:19:43.631Z,7.23
2018-07-28T10:22:14.668Z,8.27
2018-07-28T10:24:45.843Z,8.20
2018-07-28T10:27:26.556Z,8.53
2018-07-28T10:29:57.625Z,7.27
2018-07-28T10:32:44.661Z,7.63
2018-07-28T10:35:15.407Z,6.73
2018-07-28T10:37:46.389Z,6.90
2018-07-28T10:40:17.052Z,7.00
2018-07-28T10:42:52.022Z,6.83
2018-07-28T10:45:23.717Z,6.43
2018-07-28T10:47:54.305Z,6.70
2018-07-28T10:50:24.934Z,6.90
2018-07-28T10:53:18.230Z,6.23
2018-07-28T10:55:57.105Z,6.30
2018-07-28T10:58:27.745Z,5.87
2018-07-28T11:00:58.375Z,5.40
2018-07-28T11:03:28.989Z,5.60
2018-07-28T11:05:59.451Z,5.40
2018-07-28T11:08:31.279Z,6.30
2018-07-28T11:11:01.930Z,6.00
2018-07-28T11:13:32.241Z,5.50
2018-07-28T11:16:02.898Z,6.87
2018-07-28T11:18:33.349Z,10.47
2018-07-28T11:21:03.785Z,7.53
2018-07-28T11:23:56.389Z,5.33
2018-07-28T11:26:26.804Z,5.40
2018-07-28T11:28:57.195Z,6.30
2018-07-28T11:31:44.719Z,7.20
2018-07-28T11:34:32.409Z,7.53
2018-07-28T11:37:22.726Z,7.40
2018-07-28T11:40:10.340Z,8.73
2018-07-28T11:42:57.726Z,6.63
2018-07-28T11:45:32.402Z,8.20
2018-07-28T11:48:04.040Z,8.53
2018-07-28T11:50:36.959Z,9.37
2018-07-28T11:53:08.259Z,8.40
2018-07-28T11:55:38.788Z,6.93
2018-07-28T11:58:09.275Z,11.37
2018-07-28T12:00:39.685Z,15.20
2018-07-28T12:03:10.038Z,26.83
2018-07-28T12:05:40.473Z,10.13
2018-07-28T12:08:10.905Z,8.47
2018-07-28T12:10:41.267Z,7.47
2018-07-28T12:13:11.725Z,6.87
2018-07-28T12:15:42.197Z,6.30
2018-07-28T12:18:15.561Z,6.50
2018-07-28T12:23:43.161Z,5.63
2018-07-28T12:26:13.567Z,6.40
2018-07-28T12:28:44.011Z,6.80
2018-07-28T12:31:14.409Z,6.47
2018-07-28T12:33:44.856Z,6.00
2018-07-28T12:36:17.412Z,7.00
2018-07-28T12:38:47.852Z,6.00
2018-07-28T12:41:18.267Z,6.43
2018-07-28T12:43:48.815Z,6.30
2018-07-28T12:46:19.195Z,5.90
2018-07-28T12:48:49.567Z,5.70
2018-07-28T12:51:20.040Z,6.67
2018-07-28T12:53:50.416Z,7.20
2018-07-28T12:56:36.880Z,8.30
2018-07-28T12:59:07.319Z,10.07
2018-07-28T13:01:38.127Z,7.87
2018-07-28T13:04:09.080Z,9.07
2018-07-28T13:06:40.580Z,9.87
2018-07-28T13:09:12.964Z,9.98
2018-07-28T13:11:43.489Z,9.35
2018-07-28T13:14:14.022Z,9.30
2018-07-28T13:16:45.633Z,8.55
2018-07-28T13:19:33.283Z,9.45
2018-07-28T13:22:03.921Z,9.40
2018-07-28T13:24:34.444Z,11.43
2018-07-28T13:27:04.587Z,8.58
2018-07-28T13:29:40.036Z,9.08
2018-07-28T13:32:11.940Z,11.10
2018-07-28T13:34:52.700Z,11.33
2018-07-28T13:37:25.351Z,8.88
2018-07-28T13:39:58.210Z,9.78
2018-07-28T13:42:29.834Z,8.90
2018-07-28T13:45:05.396Z,9.00
2018-07-28T13:47:36.485Z,10.30
2018-07-28T13:50:08.960Z,9.10
2018-07-28T13:52:39.786Z,9.55
2018-07-28T13:55:11.735Z,9.35
2018-07-28T13:57:41.877Z,10.68
2018-07-28T14:00:12.491Z,8.83
2018-07-28T14:02:42.928Z,9.45
2018-07-28T14:05:13.425Z,9.30
2018-07-28T14:07:44.003Z,10.55
2018-07-28T14:10:14.424Z,9.10
2018-07-28T14:12:44.860Z,9.60
2018-07-28T14:15:15.438Z,9.15
2018-07-28T14:17:45.931Z,8.87
2018-07-28T14:20:16.436Z,9.07
2018-07-28T14:22:47.003Z,8.33
2018-07-28T14:25:23.604Z,9.60
2018-07-28T14:27:59.591Z,10.23
2018-07-28T14:30:30.357Z,9.30
2018-07-28T14:33:01.135Z,8.90
2018-07-28T14:35:31.951Z,9.63
2018-07-28T14:38:03.493Z,9.13
2018-07-28T14:40:34.140Z,9.27
2018-07-28T14:43:16.076Z,8.67
2018-07-28T14:45:46.615Z,10.03
2018-07-28T14:48:17.040Z,7.93
2018-07-28T14:50:47.869Z,8.43
2018-07-28T14:53:18.836Z,11.80
2018-07-28T14:58:35.992Z,13.20
2018-07-28T15:04:21.922Z,9.05
2018-07-28T15:06:52.508Z,15.23
2018-07-28T15:09:23.134Z,8.93
2018-07-28T15:11:53.587Z,8.77
2018-07-28T15:14:24.123Z,7.63
2018-07-28T15:16:54.619Z,8.80
2018-07-28T15:19:49.752Z,8.77
2018-07-28T15:22:20.608Z,8.20
2018-07-28T15:24:51.248Z,8.50
2018-07-28T15:44:52.905Z,8.00
2018-07-28T15:47:23.287Z,8.00
2018-07-28T15:49:53.658Z,8.23
2018-07-28T16:02:26.673Z,7.95
2018-07-28T16:04:57.386Z,7.80
2018-07-28T16:07:28.347Z,8.10
2018-07-28T16:09:58.954Z,8.10
2018-07-28T16:12:29.887Z,8.40
2018-07-28T16:17:35.647Z,9.30
2018-07-28T16:20:06.459Z,10.50
2018-07-28T16:22:37.262Z,10.87
2018-07-28T16:25:07.920Z,9.20
2018-07-28T16:27:38.512Z,8.85
2018-07-28T16:35:09.633Z,8.60
2018-07-28T16:37:40.607Z,9.70
2018-07-28T16:40:11.334Z,9.80
2018-07-28T16:45:11.592Z,10.10
2018-07-28T16:47:42.335Z,10.40
2018-07-28T16:50:12.791Z,10.40
2018-07-28T16:55:12.823Z,15.50
2018-07-28T16:57:43.351Z,17.25
2018-07-28T17:00:13.804Z,11.83
2018-07-28T17:02:46.532Z,13.90
2018-07-28T17:05:20.050Z,9.80
2018-07-28T17:08:03.672Z,10.40
2018-07-28T17:10:34.068Z,8.80
2018-07-28T17:15:34.366Z,10.25
2018-07-28T17:18:04.673Z,8.80
2018-07-28T17:20:35.011Z,25.60
2018-07-28T17:23:05.522Z,18.15
2018-07-28T17:25:35.946Z,12.60
2018-07-28T17:28:07.092Z,22.97
2018-07-28T17:30:37.517Z,14.45
2018-07-28T17:33:07.789Z,20.05
2018-07-28T17:35:38.341Z,16.50
2018-07-28T17:38:09.085Z,10.43
2018-07-28T17:40:47.401Z,13.03
2018-07-28T17:43:18.264Z,12.27
2018-07-28T17:45:49.243Z,13.30
2018-07-28T17:48:22.497Z,11.60
2018-07-28T17:51:06.230Z,15.70
2018-07-28T17:53:40.398Z,10.60
2018-07-28T17:56:11.477Z,9.40
2018-07-28T17:58:49.638Z,8.63
2018-07-28T18:01:37.615Z,9.50
2018-07-28T18:04:08.873Z,9.03
2018-07-28T18:06:39.553Z,8.95
2018-07-28T18:09:11.330Z,8.55
2018-07-28T18:11:41.931Z,8.67
2018-07-28T18:14:14.342Z,9.00
2018-07-28T18:16:45.026Z,8.80
2018-07-28T18:19:15.407Z,7.60
2018-07-28T18:24:15.514Z,9.75
2018-07-28T18:34:33.875Z,9.20
2018-07-28T18:37:10.319Z,9.30
2018-07-28T18:39:49.632Z,9.43
2018-07-28T18:42:27.917Z,10.37
2018-07-28T18:45:03.257Z,9.70
2018-07-28T18:47:35.323Z,9.25
2018-07-28T18:50:06.433Z,9.75
2018-07-28T18:52:36.795Z,9.63
2018-07-28T18:55:07.825Z,10.20
2018-07-28T18:57:38.038Z,10.05
2018-07-28T19:00:09.724Z,8.48
2018-07-28T19:02:44.503Z,9.43
2018-07-28T19:05:14.992Z,8.98
2018-07-28T19:08:03.433Z,9.45
2018-07-28T19:11:06.048Z,9.75
2018-07-28T19:45:33.508Z,10.03
2018-07-28T19:48:30.068Z,9.93
2018-07-28T19:51:03.571Z,10.25
2018-07-28T19:53:33.933Z,10.60
2018-07-28T19:56:05.272Z,12.00
2018-07-28T19:58:35.735Z,10.25
2018-07-28T20:01:06.366Z,9.70
2018-07-28T20:03:52.203Z,10.75
2018-07-28T20:06:22.938Z,9.95
2018-07-28T20:08:53.452Z,9.93
2018-07-28T20:11:23.948Z,10.55
2018-07-28T20:13:54.360Z,9.85
2018-07-28T20:16:24.811Z,9.00
2018-07-28T20:18:55.434Z,10.30
2018-07-28T20:21:25.943Z,9.43
2018-07-28T20:23:56.310Z,9.55
2018-07-28T20:26:26.771Z,11.30
2018-07-28T20:28:57.233Z,9.48
2018-07-28T20:31:27.615Z,10.30
2018-07-28T20:33:58.007Z,9.90
2018-07-28T20:36:28.387Z,10.32
2018-07-28T20:38:58.928Z,10.10
2018-07-28T20:41:29.368Z,10.70
2018-07-28T20:44:08.913Z,11.22
2018-07-28T20:46:39.851Z,10.93
2018-07-28T20:49:10.258Z,10.03
2018-07-28T20:51:41.079Z,10.90
2018-07-28T20:54:14.832Z,10.32
2018-07-28T20:56:45.132Z,10.90
2018-07-28T20:59:15.362Z,9.70
2018-07-28T21:01:45.713Z,10.28
2018-07-28T21:04:16.275Z,10.95
2018-07-28T21:06:46.665Z,9.63
2018-07-28T21:09:17.452Z,9.83
2018-07-28T21:11:50.466Z,10.03
2018-07-28T21:14:49.047Z,10.28
2018-07-28T21:17:25.456Z,9.75
2018-07-28T21:19:57.056Z,11.08
2018-07-28T21:22:27.599Z,11.35
2018-07-28T21:24:58.324Z,10.68
2018-07-28T21:27:29.271Z,12.13
2018-07-28T21:29:59.774Z,11.40
2018-07-28T21:32:30.091Z,10.20
2018-07-28T21:35:00.729Z,11.30
2018-07-28T21:37:35.381Z,10.53
2018-07-28T21:40:07.057Z,11.60
2018-07-28T21:42:37.427Z,10.70
2018-07-28T21:45:07.934Z,10.53
2018-07-28T21:47:38.281Z,10.13
2018-07-28T21:50:09.554Z,11.38
2018-07-28T21:52:40.211Z,10.88
2018-07-28T21:55:10.901Z,10.98
2018-07-28T21:57:41.656Z,12.23
2018-07-28T22:00:12.187Z,11.50
2018-07-28T22:02:42.688Z,10.98
2018-07-28T22:05:13.309Z,10.80
2018-07-28T22:07:56.787Z,11.38
2018-07-28T22:10:30.715Z,11.53
2018-07-28T22:13:01.170Z,10.88
2018-07-28T22:15:31.822Z,11.08
2018-07-28T22:18:02.570Z,11.20
2018-07-28T22:20:33.054Z,10.10
2018-07-28T22:23:03.321Z,9.85
2018-07-28T22:25:33.441Z,10.18
2018-07-28T22:28:04.011Z,10.30
2018-07-28T22:30:34.751Z,9.63
2018-07-28T22:33:05.504Z,10.98
2018-07-28T22:35:36.084Z,9.63
2018-07-28T22:38:06.857Z,10.30
2018-07-28T22:40:37.848Z,11.05
2018-07-28T22:43:08.749Z,9.95
2018-07-28T22:45:39.302Z,11.38
2018-07-28T22:48:09.836Z,8.95
2018-07-28T22:50:40.470Z,9.15
2018-07-28T22:53:11.443Z,8.93
2018-07-28T22:55:42.139Z,9.18
2018-07-28T22:58:12.866Z,8.88
2018-07-28T23:00:55.319Z,8.80
2018-07-28T23:03:36.297Z,8.93
2018-07-28T23:06:07.010Z,8.20
2018-07-28T23:08:37.755Z,7.45
2018-07-28T23:14:13.378Z,6.72
2018-07-28T23:16:43.873Z,8.00
2018-07-28T23:19:14.321Z,7.60
2018-07-28T23:21:44.855Z,7.75
2018-07-28T23:24:15.143Z,8.50
2018-07-28T23:26:45.556Z,8.85
2018-07-28T23:29:15.897Z,8.35
2018-07-28T23:31:46.321Z,8.03
2018-07-28T23:34:16.833Z,7.75
2018-07-28T23:36:47.441Z,7.80
2018-07-28T23:39:17.986Z,8.30
2018-07-28T23:41:48.319Z,8.55
2018-07-28T23:44:18.770Z,7.95
2018-07-28T23:46:49.375Z,7.08
2018-07-28T23:49:20.823Z,8.20
2018-07-28T23:51:51.480Z,7.95
2018-07-28T23:54:22.223Z,8.23
2018-07-28T23:57:04.267Z,8.80
2018-07-28T23:59:35.178Z,8.35
